sensor_id;sensor_type;location;lat;lon;timestamp;P1;durP1;ratioP1;P2;durP2;ratioP2
5363;SDS011;2705;41.410;2.160;2023-04-01T00:01:33;30.47;;;10.50;;
5363;SDS011;2705;41.410;2.160;2023-04-01T00:04:03;29.20;;;8.60;;
5363;SDS011;2705;41.410;2.160;2023-04-01T00:06:35;20.60;;;7.37;;
5363;SDS011;2705;41.410;2.160;2023-04-01T00:09:04;23.37;;;8.17;;
5363;SDS011;2705;41.410;2.160;2023-04-01T00:11:34;20.80;;;7.93;;
5363;SDS011;2705;41.410;2.160;2023-04-01T00:14:04;25.93;;;7.23;;
5363;SDS011;2705;41.410;2.160;2023-04-01T00:16:34;30.17;;;8.80;;
5363;SDS011;2705;41.410;2.160;2023-04-01T00:19:03;27.43;;;8.00;;
5363;SDS011;2705;41.410;2.160;2023-04-01T00:21:35;19.47;;;8.40;;
5363;SDS011;2705;41.410;2.160;2023-04-01T00:24:05;22.57;;;7.40;;
5363;SDS011;2705;41.410;2.160;2023-04-01T00:26:36;28.47;;;8.90;;
5363;SDS011;2705;41.410;2.160;2023-04-01T00:29:05;20.33;;;7.90;;
5363;SDS011;2705;41.410;2.160;2023-04-01T00:31:34;29.40;;;8.57;;
5363;SDS011;2705;41.410;2.160;2023-04-01T00:34:04;22.73;;;8.40;;
5363;SDS011;2705;41.410;2.160;2023-04-01T00:36:35;20.60;;;8.43;;
5363;SDS011;2705;41.410;2.160;2023-04-01T00:39:06;22.33;;;8.33;;
5363;SDS011;2705;41.410;2.160;2023-04-01T00:41:36;31.13;;;10.23;;
5363;SDS011;2705;41.410;2.160;2023-04-01T00:44:14;35.73;;;11.33;;
5363;SDS011;2705;41.410;2.160;2023-04-01T00:46:46;37.07;;;10.20;;
5363;SDS011;2705;41.410;2.160;2023-04-01T00:49:16;24.30;;;8.50;;
5363;SDS011;2705;41.410;2.160;2023-04-01T00:51:50;32.73;;;8.77;;
5363;SDS011;2705;41.410;2.160;2023-04-01T00:54:21;21.53;;;8.80;;
5363;SDS011;2705;41.410;2.160;2023-04-01T00:56:52;20.60;;;9.10;;
5363;SDS011;2705;41.410;2.160;2023-04-01T00:59:25;24.07;;;9.47;;
5363;SDS011;2705;41.410;2.160;2023-04-01T01:01:56;27.50;;;9.00;;
5363;SDS011;2705;41.410;2.160;2023-04-01T01:04:26;27.60;;;8.07;;
5363;SDS011;2705;41.410;2.160;2023-04-01T01:07:02;28.97;;;8.80;;
5363;SDS011;2705;41.410;2.160;2023-04-01T01:09:40;26.83;;;9.40;;
5363;SDS011;2705;41.410;2.160;2023-04-01T01:12:13;37.67;;;8.77;;
5363;SDS011;2705;41.410;2.160;2023-04-01T01:14:48;29.03;;;9.20;;
5363;SDS011;2705;41.410;2.160;2023-04-01T01:17:22;27.93;;;8.90;;
5363;SDS011;2705;41.410;2.160;2023-04-01T01:23:02;23.13;;;8.30;;
5363;SDS011;2705;41.410;2.160;2023-04-01T01:25:39;31.23;;;8.23;;
5363;SDS011;2705;41.410;2.160;2023-04-01T01:28:22;26.83;;;8.43;;
5363;SDS011;2705;41.410;2.160;2023-04-01T01:30:58;24.00;;;8.20;;
5363;SDS011;2705;41.410;2.160;2023-04-01T01:36:23;22.80;;;8.27;;
5363;SDS011;2705;41.410;2.160;2023-04-01T01:38:57;23.47;;;7.93;;
5363;SDS011;2705;41.410;2.160;2023-04-01T01:41:28;29.17;;;7.70;;
5363;SDS011;2705;41.410;2.160;2023-04-01T01:43:58;35.20;;;7.87;;
5363;SDS011;2705;41.410;2.160;2023-04-01T01:46:30;35.10;;;9.33;;
5363;SDS011;2705;41.410;2.160;2023-04-01T01:49:00;20.20;;;8.30;;
5363;SDS011;2705;41.410;2.160;2023-04-01T01:51:33;24.23;;;8.57;;
5363;SDS011;2705;41.410;2.160;2023-04-01T01:54:05;27.87;;;9.07;;
5363;SDS011;2705;41.410;2.160;2023-04-01T01:56:35;26.50;;;8.10;;
5363;SDS011;2705;41.410;2.160;2023-04-01T01:59:05;27.10;;;8.70;;
5363;SDS011;2705;41.410;2.160;2023-04-01T02:01:39;27.70;;;8.90;;
5363;SDS011;2705;41.410;2.160;2023-04-01T02:04:13;21.50;;;8.80;;
5363;SDS011;2705;41.410;2.160;2023-04-01T02:06:46;22.90;;;9.20;;
5363;SDS011;2705;41.410;2.160;2023-04-01T02:09:17;24.73;;;8.57;;
5363;SDS011;2705;41.410;2.160;2023-04-01T02:11:47;32.17;;;9.00;;
5363;SDS011;2705;41.410;2.160;2023-04-01T02:14:18;24.17;;;8.47;;
5363;SDS011;2705;41.410;2.160;2023-04-01T02:16:51;27.23;;;9.63;;
5363;SDS011;2705;41.410;2.160;2023-04-01T02:19:22;23.60;;;8.67;;
5363;SDS011;2705;41.410;2.160;2023-04-01T02:21:57;20.53;;;8.00;;
5363;SDS011;2705;41.410;2.160;2023-04-01T02:24:27;23.93;;;9.23;;
5363;SDS011;2705;41.410;2.160;2023-04-01T02:26:58;31.27;;;9.00;;
5363;SDS011;2705;41.410;2.160;2023-04-01T02:29:30;23.40;;;8.50;;
5363;SDS011;2705;41.410;2.160;2023-04-01T02:32:00;27.83;;;9.33;;
5363;SDS011;2705;41.410;2.160;2023-04-01T02:34:29;23.03;;;8.33;;
5363;SDS011;2705;41.410;2.160;2023-04-01T02:37:00;29.97;;;8.70;;
5363;SDS011;2705;41.410;2.160;2023-04-01T02:39:31;21.93;;;7.87;;
5363;SDS011;2705;41.410;2.160;2023-04-01T02:42:00;24.43;;;8.40;;
5363;SDS011;2705;41.410;2.160;2023-04-01T02:44:31;30.80;;;8.93;;
5363;SDS011;2705;41.410;2.160;2023-04-01T02:47:02;32.43;;;9.67;;
5363;SDS011;2705;41.410;2.160;2023-04-01T02:49:32;27.87;;;8.60;;
5363;SDS011;2705;41.410;2.160;2023-04-01T02:52:03;22.53;;;8.83;;
5363;SDS011;2705;41.410;2.160;2023-04-01T02:54:32;29.20;;;8.57;;
5363;SDS011;2705;41.410;2.160;2023-04-01T02:57:01;34.23;;;8.90;;
5363;SDS011;2705;41.410;2.160;2023-04-01T02:59:32;20.70;;;9.00;;
5363;SDS011;2705;41.410;2.160;2023-04-01T03:02:02;28.27;;;8.40;;
5363;SDS011;2705;41.410;2.160;2023-04-01T03:04:31;41.73;;;9.83;;
5363;SDS011;2705;41.410;2.160;2023-04-01T03:07:02;21.30;;;8.57;;
5363;SDS011;2705;41.410;2.160;2023-04-01T03:09:32;24.70;;;8.63;;
5363;SDS011;2705;41.410;2.160;2023-04-01T03:12:03;26.70;;;8.70;;
5363;SDS011;2705;41.410;2.160;2023-04-01T03:14:43;21.10;;;8.93;;
5363;SDS011;2705;41.410;2.160;2023-04-01T03:17:13;28.33;;;9.83;;
5363;SDS011;2705;41.410;2.160;2023-04-01T03:19:43;31.10;;;9.37;;
5363;SDS011;2705;41.410;2.160;2023-04-01T03:22:14;36.03;;;9.70;;
5363;SDS011;2705;41.410;2.160;2023-04-01T03:24:47;27.60;;;9.23;;
5363;SDS011;2705;41.410;2.160;2023-04-01T03:27:16;30.07;;;9.30;;
5363;SDS011;2705;41.410;2.160;2023-04-01T03:29:47;31.63;;;10.07;;
5363;SDS011;2705;41.410;2.160;2023-04-01T03:32:18;19.67;;;9.13;;
5363;SDS011;2705;41.410;2.160;2023-04-01T03:34:48;35.77;;;9.83;;
5363;SDS011;2705;41.410;2.160;2023-04-01T03:37:20;36.83;;;10.47;;
5363;SDS011;2705;41.410;2.160;2023-04-01T03:39:50;29.63;;;9.70;;
5363;SDS011;2705;41.410;2.160;2023-04-01T03:42:19;31.33;;;9.60;;
5363;SDS011;2705;41.410;2.160;2023-04-01T03:44:50;33.93;;;10.60;;
5363;SDS011;2705;41.410;2.160;2023-04-01T03:47:20;44.23;;;11.17;;
5363;SDS011;2705;41.410;2.160;2023-04-01T03:49:50;33.13;;;10.13;;
5363;SDS011;2705;41.410;2.160;2023-04-01T03:52:21;22.40;;;9.60;;
5363;SDS011;2705;41.410;2.160;2023-04-01T03:54:51;34.10;;;10.27;;
5363;SDS011;2705;41.410;2.160;2023-04-01T03:57:21;33.80;;;8.93;;
5363;SDS011;2705;41.410;2.160;2023-04-01T03:59:52;37.80;;;9.83;;
5363;SDS011;2705;41.410;2.160;2023-04-01T04:02:22;27.60;;;9.07;;
5363;SDS011;2705;41.410;2.160;2023-04-01T04:04:52;31.17;;;11.13;;
5363;SDS011;2705;41.410;2.160;2023-04-01T04:07:23;31.03;;;8.87;;
5363;SDS011;2705;41.410;2.160;2023-04-01T04:10:03;35.57;;;9.43;;
5363;SDS011;2705;41.410;2.160;2023-04-01T04:12:34;33.87;;;9.83;;
5363;SDS011;2705;41.410;2.160;2023-04-01T04:15:05;29.83;;;9.73;;
5363;SDS011;2705;41.410;2.160;2023-04-01T04:17:34;26.30;;;10.00;;
5363;SDS011;2705;41.410;2.160;2023-04-01T04:20:04;39.10;;;11.70;;
5363;SDS011;2705;41.410;2.160;2023-04-01T04:22:37;34.07;;;9.90;;
5363;SDS011;2705;41.410;2.160;2023-04-01T04:25:08;29.00;;;9.67;;
5363;SDS011;2705;41.410;2.160;2023-04-01T04:27:38;32.90;;;9.80;;
5363;SDS011;2705;41.410;2.160;2023-04-01T04:30:12;39.03;;;9.83;;
5363;SDS011;2705;41.410;2.160;2023-04-01T04:32:42;27.93;;;8.57;;
5363;SDS011;2705;41.410;2.160;2023-04-01T04:35:12;34.53;;;11.00;;
5363;SDS011;2705;41.410;2.160;2023-04-01T04:37:43;30.97;;;8.90;;
5363;SDS011;2705;41.410;2.160;2023-04-01T04:40:15;33.47;;;10.00;;
5363;SDS011;2705;41.410;2.160;2023-04-01T04:42:44;32.90;;;10.10;;
5363;SDS011;2705;41.410;2.160;2023-04-01T04:45:15;39.23;;;10.80;;
5363;SDS011;2705;41.410;2.160;2023-04-01T04:47:53;37.13;;;8.63;;
5363;SDS011;2705;41.410;2.160;2023-04-01T04:50:23;40.90;;;10.80;;
5363;SDS011;2705;41.410;2.160;2023-04-01T04:52:54;28.13;;;10.40;;
5363;SDS011;2705;41.410;2.160;2023-04-01T04:55:24;31.70;;;9.60;;
5363;SDS011;2705;41.410;2.160;2023-04-01T04:58:13;31.47;;;9.33;;
5363;SDS011;2705;41.410;2.160;2023-04-01T05:00:44;34.50;;;10.80;;
5363;SDS011;2705;41.410;2.160;2023-04-01T05:03:21;40.27;;;9.60;;
5363;SDS011;2705;41.410;2.160;2023-04-01T05:05:51;34.17;;;10.67;;
5363;SDS011;2705;41.410;2.160;2023-04-01T05:08:21;40.27;;;11.80;;
5363;SDS011;2705;41.410;2.160;2023-04-01T05:10:51;32.00;;;9.37;;
5363;SDS011;2705;41.410;2.160;2023-04-01T05:13:20;41.50;;;10.13;;
5363;SDS011;2705;41.410;2.160;2023-04-01T05:15:51;34.17;;;10.57;;
5363;SDS011;2705;41.410;2.160;2023-04-01T05:18:21;37.77;;;11.07;;
5363;SDS011;2705;41.410;2.160;2023-04-01T05:20:52;28.70;;;10.47;;
5363;SDS011;2705;41.410;2.160;2023-04-01T05:23:25;35.30;;;10.60;;
5363;SDS011;2705;41.410;2.160;2023-04-01T05:25:54;35.63;;;10.77;;
5363;SDS011;2705;41.410;2.160;2023-04-01T05:28:24;35.60;;;10.67;;
5363;SDS011;2705;41.410;2.160;2023-04-01T05:30:57;33.30;;;10.47;;
5363;SDS011;2705;41.410;2.160;2023-04-01T05:33:33;49.10;;;11.40;;
5363;SDS011;2705;41.410;2.160;2023-04-01T05:36:09;40.90;;;12.30;;
5363;SDS011;2705;41.410;2.160;2023-04-01T05:38:41;42.50;;;12.47;;
5363;SDS011;2705;41.410;2.160;2023-04-01T05:41:15;44.93;;;11.53;;
5363;SDS011;2705;41.410;2.160;2023-04-01T05:43:45;42.10;;;11.73;;
5363;SDS011;2705;41.410;2.160;2023-04-01T05:46:33;37.53;;;11.10;;
5363;SDS011;2705;41.410;2.160;2023-04-01T05:49:11;34.87;;;10.70;;
5363;SDS011;2705;41.410;2.160;2023-04-01T05:51:42;33.50;;;10.07;;
5363;SDS011;2705;41.410;2.160;2023-04-01T05:54:13;28.87;;;10.10;;
5363;SDS011;2705;41.410;2.160;2023-04-01T05:56:44;37.30;;;9.40;;
5363;SDS011;2705;41.410;2.160;2023-04-01T05:59:15;29.17;;;8.53;;
5363;SDS011;2705;41.410;2.160;2023-04-01T06:01:45;23.90;;;7.10;;
5363;SDS011;2705;41.410;2.160;2023-04-01T06:04:34;24.43;;;6.37;;
5363;SDS011;2705;41.410;2.160;2023-04-01T06:07:40;23.93;;;7.27;;
5363;SDS011;2705;41.410;2.160;2023-04-01T06:10:55;15.03;;;5.90;;
5363;SDS011;2705;41.410;2.160;2023-04-01T06:14:07;27.30;;;6.70;;
5363;SDS011;2705;41.410;2.160;2023-04-01T06:17:18;17.43;;;6.23;;
5363;SDS011;2705;41.410;2.160;2023-04-01T06:19:55;20.10;;;5.90;;
5363;SDS011;2705;41.410;2.160;2023-04-01T06:31:05;14.80;;;5.73;;
5363;SDS011;2705;41.410;2.160;2023-04-01T06:33:51;18.20;;;5.93;;
5363;SDS011;2705;41.410;2.160;2023-04-01T06:39:13;17.50;;;6.20;;
5363;SDS011;2705;41.410;2.160;2023-04-01T06:44:50;14.80;;;5.90;;
5363;SDS011;2705;41.410;2.160;2023-04-01T06:47:46;27.87;;;7.13;;
5363;SDS011;2705;41.410;2.160;2023-04-01T06:50:51;18.03;;;5.07;;
5363;SDS011;2705;41.410;2.160;2023-04-01T06:53:54;16.93;;;5.10;;
5363;SDS011;2705;41.410;2.160;2023-04-01T06:56:44;16.40;;;5.90;;
5363;SDS011;2705;41.410;2.160;2023-04-01T06:59:25;21.00;;;6.77;;
5363;SDS011;2705;41.410;2.160;2023-04-01T07:01:57;22.33;;;5.90;;
5363;SDS011;2705;41.410;2.160;2023-04-01T07:04:31;19.33;;;6.63;;
5363;SDS011;2705;41.410;2.160;2023-04-01T07:07:02;19.90;;;5.70;;
5363;SDS011;2705;41.410;2.160;2023-04-01T07:09:39;29.77;;;8.80;;
5363;SDS011;2705;41.410;2.160;2023-04-01T07:12:43;14.70;;;5.63;;
5363;SDS011;2705;41.410;2.160;2023-04-01T07:15:51;17.20;;;5.97;;
5363;SDS011;2705;41.410;2.160;2023-04-01T07:18:30;25.30;;;6.90;;
5363;SDS011;2705;41.410;2.160;2023-04-01T07:21:05;16.47;;;5.53;;
5363;SDS011;2705;41.410;2.160;2023-04-01T07:23:40;13.30;;;5.90;;
5363;SDS011;2705;41.410;2.160;2023-04-01T07:26:33;15.70;;;5.37;;
5363;SDS011;2705;41.410;2.160;2023-04-01T07:29:09;23.13;;;6.63;;
5363;SDS011;2705;41.410;2.160;2023-04-01T07:32:04;18.10;;;5.87;;
5363;SDS011;2705;41.410;2.160;2023-04-01T07:34:36;21.73;;;6.13;;
5363;SDS011;2705;41.410;2.160;2023-04-01T07:37:15;22.80;;;6.60;;
5363;SDS011;2705;41.410;2.160;2023-04-01T07:39:48;22.40;;;8.50;;
5363;SDS011;2705;41.410;2.160;2023-04-01T07:42:37;18.37;;;5.80;;
5363;SDS011;2705;41.410;2.160;2023-04-01T07:45:12;18.77;;;5.60;;
5363;SDS011;2705;41.410;2.160;2023-04-01T07:47:48;25.63;;;4.80;;
5363;SDS011;2705;41.410;2.160;2023-04-01T07:50:20;23.63;;;6.80;;
5363;SDS011;2705;41.410;2.160;2023-04-01T07:52:58;23.00;;;5.97;;
5363;SDS011;2705;41.410;2.160;2023-04-01T07:55:29;19.83;;;6.30;;
5363;SDS011;2705;41.410;2.160;2023-04-01T07:58:02;17.67;;;6.60;;
5363;SDS011;2705;41.410;2.160;2023-04-01T08:00:39;19.60;;;6.23;;
5363;SDS011;2705;41.410;2.160;2023-04-01T08:03:22;13.93;;;5.50;;
5363;SDS011;2705;41.410;2.160;2023-04-01T08:05:57;20.90;;;6.60;;
5363;SDS011;2705;41.410;2.160;2023-04-01T08:08:35;24.83;;;6.03;;
5363;SDS011;2705;41.410;2.160;2023-04-01T08:11:31;15.37;;;5.40;;
5363;SDS011;2705;41.410;2.160;2023-04-01T08:14:27;21.00;;;6.10;;
5363;SDS011;2705;41.410;2.160;2023-04-01T08:17:19;18.27;;;6.57;;
5363;SDS011;2705;41.410;2.160;2023-04-01T08:19:55;19.73;;;8.77;;
5363;SDS011;2705;41.410;2.160;2023-04-01T08:22:33;17.60;;;5.50;;
5363;SDS011;2705;41.410;2.160;2023-04-01T08:25:16;13.50;;;6.23;;
5363;SDS011;2705;41.410;2.160;2023-04-01T08:27:48;22.77;;;6.03;;
5363;SDS011;2705;41.410;2.160;2023-04-01T08:30:19;17.50;;;5.87;;
5363;SDS011;2705;41.410;2.160;2023-04-01T08:32:50;21.43;;;6.10;;
5363;SDS011;2705;41.410;2.160;2023-04-01T08:35:26;20.60;;;6.07;;
5363;SDS011;2705;41.410;2.160;2023-04-01T08:38:01;23.30;;;5.70;;
5363;SDS011;2705;41.410;2.160;2023-04-01T08:40:50;20.40;;;5.57;;
5363;SDS011;2705;41.410;2.160;2023-04-01T08:43:26;25.00;;;5.63;;
5363;SDS011;2705;41.410;2.160;2023-04-01T08:46:04;14.83;;;5.83;;
5363;SDS011;2705;41.410;2.160;2023-04-01T08:48:42;12.63;;;4.87;;
5363;SDS011;2705;41.410;2.160;2023-04-01T08:54:20;13.60;;;5.50;;
5363;SDS011;2705;41.410;2.160;2023-04-01T08:57:00;12.50;;;5.13;;
5363;SDS011;2705;41.410;2.160;2023-04-01T08:59:50;20.00;;;6.47;;
5363;SDS011;2705;41.410;2.160;2023-04-01T09:08:52;16.90;;;5.70;;
5363;SDS011;2705;41.410;2.160;2023-04-01T09:11:28;27.33;;;7.00;;
5363;SDS011;2705;41.410;2.160;2023-04-01T09:14:25;19.53;;;5.30;;
5363;SDS011;2705;41.410;2.160;2023-04-01T09:20:06;21.70;;;6.00;;
5363;SDS011;2705;41.410;2.160;2023-04-01T09:22:39;13.47;;;5.23;;
5363;SDS011;2705;41.410;2.160;2023-04-01T09:25:20;14.60;;;4.63;;
5363;SDS011;2705;41.410;2.160;2023-04-01T09:27:54;16.20;;;5.20;;
5363;SDS011;2705;41.410;2.160;2023-04-01T09:30:36;16.03;;;6.50;;
5363;SDS011;2705;41.410;2.160;2023-04-01T09:36:03;14.80;;;4.97;;
5363;SDS011;2705;41.410;2.160;2023-04-01T09:38:36;14.17;;;4.73;;
5363;SDS011;2705;41.410;2.160;2023-04-01T09:41:11;16.43;;;5.70;;
5363;SDS011;2705;41.410;2.160;2023-04-01T09:44:01;17.80;;;6.10;;
5363;SDS011;2705;41.410;2.160;2023-04-01T09:46:48;15.20;;;4.63;;
5363;SDS011;2705;41.410;2.160;2023-04-01T09:49:30;17.67;;;5.40;;
5363;SDS011;2705;41.410;2.160;2023-04-01T09:52:10;14.47;;;4.30;;
5363;SDS011;2705;41.410;2.160;2023-04-01T09:54:50;13.10;;;4.77;;
5363;SDS011;2705;41.410;2.160;2023-04-01T09:57:44;15.53;;;5.27;;
5363;SDS011;2705;41.410;2.160;2023-04-01T10:00:44;15.83;;;4.73;;
5363;SDS011;2705;41.410;2.160;2023-04-01T10:06:19;12.70;;;5.17;;
5363;SDS011;2705;41.410;2.160;2023-04-01T10:08:59;12.77;;;5.37;;
5363;SDS011;2705;41.410;2.160;2023-04-01T10:11:44;12.10;;;5.23;;
5363;SDS011;2705;41.410;2.160;2023-04-01T10:14:27;13.90;;;4.40;;
5363;SDS011;2705;41.410;2.160;2023-04-01T10:17:07;9.90;;;4.80;;
5363;SDS011;2705;41.410;2.160;2023-04-01T10:22:44;13.33;;;4.90;;
5363;SDS011;2705;41.410;2.160;2023-04-01T10:28:24;16.67;;;5.50;;
5363;SDS011;2705;41.410;2.160;2023-04-01T10:31:22;22.03;;;5.37;;
5363;SDS011;2705;41.410;2.160;2023-04-01T10:36:48;9.47;;;3.90;;
5363;SDS011;2705;41.410;2.160;2023-04-01T10:39:43;12.90;;;4.90;;
5363;SDS011;2705;41.410;2.160;2023-04-01T10:45:49;13.87;;;4.93;;
5363;SDS011;2705;41.410;2.160;2023-04-01T10:48:41;8.97;;;4.13;;
5363;SDS011;2705;41.410;2.160;2023-04-01T10:51:21;9.87;;;4.90;;
5363;SDS011;2705;41.410;2.160;2023-04-01T10:57:12;10.50;;;4.60;;
5363;SDS011;2705;41.410;2.160;2023-04-01T11:03:37;10.87;;;3.87;;
5363;SDS011;2705;41.410;2.160;2023-04-01T11:15:38;13.70;;;5.43;;
5363;SDS011;2705;41.410;2.160;2023-04-01T11:24:00;21.00;;;5.43;;
5363;SDS011;2705;41.410;2.160;2023-04-01T11:26:50;12.67;;;4.60;;
5363;SDS011;2705;41.410;2.160;2023-04-01T11:29:42;14.70;;;5.07;;
5363;SDS011;2705;41.410;2.160;2023-04-01T11:32:38;15.97;;;4.80;;
5363;SDS011;2705;41.410;2.160;2023-04-01T11:38:19;12.90;;;4.80;;
5363;SDS011;2705;41.410;2.160;2023-04-01T11:40:52;18.47;;;6.30;;
5363;SDS011;2705;41.410;2.160;2023-04-01T11:43:43;11.90;;;4.90;;
5363;SDS011;2705;41.410;2.160;2023-04-01T11:46:23;14.73;;;5.20;;
5363;SDS011;2705;41.410;2.160;2023-04-01T11:51:54;16.77;;;5.43;;
5363;SDS011;2705;41.410;2.160;2023-04-01T11:54:29;16.47;;;6.03;;
5363;SDS011;2705;41.410;2.160;2023-04-01T11:57:05;13.10;;;5.87;;
5363;SDS011;2705;41.410;2.160;2023-04-01T11:59:48;11.03;;;4.60;;
5363;SDS011;2705;41.410;2.160;2023-04-01T12:02:23;18.07;;;5.17;;
5363;SDS011;2705;41.410;2.160;2023-04-01T12:04:58;25.13;;;5.30;;
5363;SDS011;2705;41.410;2.160;2023-04-01T12:07:39;17.87;;;6.60;;
5363;SDS011;2705;41.410;2.160;2023-04-01T12:10:15;17.47;;;6.80;;
5363;SDS011;2705;41.410;2.160;2023-04-01T12:12:49;19.30;;;5.50;;
5363;SDS011;2705;41.410;2.160;2023-04-01T12:15:29;12.73;;;5.43;;
5363;SDS011;2705;41.410;2.160;2023-04-01T12:18:03;19.33;;;6.50;;
5363;SDS011;2705;41.410;2.160;2023-04-01T12:20:40;18.77;;;6.07;;
5363;SDS011;2705;41.410;2.160;2023-04-01T12:26:12;16.13;;;5.77;;
5363;SDS011;2705;41.410;2.160;2023-04-01T12:28:51;18.97;;;5.63;;
5363;SDS011;2705;41.410;2.160;2023-04-01T12:31:28;21.37;;;5.87;;
5363;SDS011;2705;41.410;2.160;2023-04-01T12:34:13;16.97;;;6.23;;
5363;SDS011;2705;41.410;2.160;2023-04-01T12:36:52;14.90;;;6.07;;
5363;SDS011;2705;41.410;2.160;2023-04-01T12:39:32;20.13;;;6.47;;
5363;SDS011;2705;41.410;2.160;2023-04-01T12:42:12;20.57;;;5.63;;
5363;SDS011;2705;41.410;2.160;2023-04-01T12:44:49;12.57;;;4.70;;
5363;SDS011;2705;41.410;2.160;2023-04-01T12:47:26;14.00;;;5.00;;
5363;SDS011;2705;41.410;2.160;2023-04-01T12:53:02;21.50;;;5.43;;
5363;SDS011;2705;41.410;2.160;2023-04-01T12:55:35;22.13;;;6.13;;
5363;SDS011;2705;41.410;2.160;2023-04-01T13:01:10;15.37;;;5.97;;
5363;SDS011;2705;41.410;2.160;2023-04-01T13:03:53;13.93;;;4.63;;
5363;SDS011;2705;41.410;2.160;2023-04-01T13:06:32;16.70;;;4.67;;
5363;SDS011;2705;41.410;2.160;2023-04-01T13:09:07;14.57;;;5.30;;
5363;SDS011;2705;41.410;2.160;2023-04-01T13:11:48;16.30;;;6.53;;
5363;SDS011;2705;41.410;2.160;2023-04-01T13:14:26;17.33;;;5.97;;
5363;SDS011;2705;41.410;2.160;2023-04-01T13:17:02;18.77;;;4.87;;
5363;SDS011;2705;41.410;2.160;2023-04-01T13:19:35;12.90;;;4.63;;
5363;SDS011;2705;41.410;2.160;2023-04-01T13:22:07;16.60;;;4.97;;
5363;SDS011;2705;41.410;2.160;2023-04-01T13:24:44;13.33;;;4.87;;
5363;SDS011;2705;41.410;2.160;2023-04-01T13:27:17;15.80;;;5.10;;
5363;SDS011;2705;41.410;2.160;2023-04-01T13:29:54;14.40;;;3.93;;
5363;SDS011;2705;41.410;2.160;2023-04-01T13:32:29;19.20;;;4.67;;
5363;SDS011;2705;41.410;2.160;2023-04-01T13:35:16;11.53;;;4.70;;
5363;SDS011;2705;41.410;2.160;2023-04-01T13:40:48;12.23;;;4.87;;
5363;SDS011;2705;41.410;2.160;2023-04-01T13:43:30;16.43;;;4.30;;
5363;SDS011;2705;41.410;2.160;2023-04-01T13:46:22;14.33;;;4.73;;
5363;SDS011;2705;41.410;2.160;2023-04-01T13:51:49;14.10;;;4.60;;
5363;SDS011;2705;41.410;2.160;2023-04-01T13:57:16;13.37;;;4.87;;
5363;SDS011;2705;41.410;2.160;2023-04-01T14:05:32;10.40;;;3.20;;
5363;SDS011;2705;41.410;2.160;2023-04-01T14:08:16;6.77;;;2.60;;
5363;SDS011;2705;41.410;2.160;2023-04-01T14:10:48;10.47;;;2.47;;
5363;SDS011;2705;41.410;2.160;2023-04-01T14:13:23;13.83;;;2.33;;
5363;SDS011;2705;41.410;2.160;2023-04-01T14:16:04;4.83;;;2.27;;
5363;SDS011;2705;41.410;2.160;2023-04-01T14:18:42;4.90;;;2.40;;
5363;SDS011;2705;41.410;2.160;2023-04-01T14:21:21;7.93;;;2.70;;
5363;SDS011;2705;41.410;2.160;2023-04-01T14:24:04;7.90;;;2.67;;
5363;SDS011;2705;41.410;2.160;2023-04-01T14:26:43;9.70;;;2.70;;
5363;SDS011;2705;41.410;2.160;2023-04-01T14:29:18;9.47;;;2.50;;
5363;SDS011;2705;41.410;2.160;2023-04-01T14:31:53;2.70;;;1.87;;
5363;SDS011;2705;41.410;2.160;2023-04-01T14:34:31;6.53;;;2.30;;
5363;SDS011;2705;41.410;2.160;2023-04-01T14:39:57;6.70;;;2.13;;
5363;SDS011;2705;41.410;2.160;2023-04-01T14:42:47;14.13;;;3.50;;
5363;SDS011;2705;41.410;2.160;2023-04-01T14:45:40;15.70;;;4.00;;
5363;SDS011;2705;41.410;2.160;2023-04-01T14:48:15;16.10;;;4.10;;
5363;SDS011;2705;41.410;2.160;2023-04-01T14:50:48;15.80;;;4.17;;
5363;SDS011;2705;41.410;2.160;2023-04-01T14:53:24;18.07;;;3.57;;
5363;SDS011;2705;41.410;2.160;2023-04-01T14:55:58;11.83;;;3.67;;
5363;SDS011;2705;41.410;2.160;2023-04-01T14:58:38;10.77;;;3.93;;
5363;SDS011;2705;41.410;2.160;2023-04-01T15:01:16;22.83;;;5.50;;
5363;SDS011;2705;41.410;2.160;2023-04-01T15:03:48;14.20;;;4.70;;
5363;SDS011;2705;41.410;2.160;2023-04-01T15:06:35;15.13;;;4.07;;
5363;SDS011;2705;41.410;2.160;2023-04-01T15:09:10;13.73;;;4.30;;
5363;SDS011;2705;41.410;2.160;2023-04-01T15:11:48;23.80;;;5.53;;
5363;SDS011;2705;41.410;2.160;2023-04-01T15:14:24;19.30;;;4.93;;
5363;SDS011;2705;41.410;2.160;2023-04-01T15:17:00;10.87;;;4.23;;
5363;SDS011;2705;41.410;2.160;2023-04-01T15:19:39;20.50;;;4.93;;
5363;SDS011;2705;41.410;2.160;2023-04-01T15:22:20;16.57;;;5.10;;
5363;SDS011;2705;41.410;2.160;2023-04-01T15:24:59;17.00;;;4.53;;
5363;SDS011;2705;41.410;2.160;2023-04-01T15:27:34;14.80;;;4.40;;
5363;SDS011;2705;41.410;2.160;2023-04-01T15:35:44;18.40;;;4.60;;
5363;SDS011;2705;41.410;2.160;2023-04-01T15:38:20;19.23;;;4.83;;
5363;SDS011;2705;41.410;2.160;2023-04-01T15:40:55;15.10;;;4.40;;
5363;SDS011;2705;41.410;2.160;2023-04-01T15:43:31;12.80;;;4.53;;
5363;SDS011;2705;41.410;2.160;2023-04-01T15:46:25;11.40;;;5.10;;
5363;SDS011;2705;41.410;2.160;2023-04-01T15:49:02;18.90;;;4.43;;
5363;SDS011;2705;41.410;2.160;2023-04-01T15:54:28;11.53;;;3.93;;
5363;SDS011;2705;41.410;2.160;2023-04-01T15:57:08;11.17;;;3.80;;
5363;SDS011;2705;41.410;2.160;2023-04-01T15:59:56;9.37;;;3.30;;
5363;SDS011;2705;41.410;2.160;2023-04-01T16:02:29;13.00;;;6.10;;
5363;SDS011;2705;41.410;2.160;2023-04-01T16:05:03;11.10;;;2.83;;
5363;SDS011;2705;41.410;2.160;2023-04-01T16:07:42;7.80;;;3.07;;
5363;SDS011;2705;41.410;2.160;2023-04-01T16:10:29;11.20;;;2.70;;
5363;SDS011;2705;41.410;2.160;2023-04-01T16:13:04;6.67;;;2.30;;
5363;SDS011;2705;41.410;2.160;2023-04-01T16:15:44;10.77;;;3.40;;
5363;SDS011;2705;41.410;2.160;2023-04-01T16:18:20;5.80;;;2.30;;
5363;SDS011;2705;41.410;2.160;2023-04-01T16:20:57;11.23;;;3.67;;
5363;SDS011;2705;41.410;2.160;2023-04-01T16:23:33;10.10;;;2.77;;
5363;SDS011;2705;41.410;2.160;2023-04-01T16:26:06;6.93;;;2.97;;
5363;SDS011;2705;41.410;2.160;2023-04-01T16:28:39;23.37;;;5.90;;
5363;SDS011;2705;41.410;2.160;2023-04-01T16:31:12;4.23;;;2.33;;
5363;SDS011;2705;41.410;2.160;2023-04-01T16:33:45;4.70;;;2.10;;
5363;SDS011;2705;41.410;2.160;2023-04-01T16:36:21;5.03;;;1.97;;
5363;SDS011;2705;41.410;2.160;2023-04-01T16:38:53;7.83;;;2.13;;
5363;SDS011;2705;41.410;2.160;2023-04-01T16:41:25;2.80;;;1.90;;
5363;SDS011;2705;41.410;2.160;2023-04-01T16:44:08;13.27;;;2.67;;
5363;SDS011;2705;41.410;2.160;2023-04-01T16:46:41;6.80;;;2.80;;
5363;SDS011;2705;41.410;2.160;2023-04-01T16:49:17;5.20;;;1.90;;
5363;SDS011;2705;41.410;2.160;2023-04-01T16:51:53;8.70;;;2.80;;
5363;SDS011;2705;41.410;2.160;2023-04-01T16:54:27;9.27;;;2.07;;
5363;SDS011;2705;41.410;2.160;2023-04-01T16:57:02;18.33;;;2.43;;
5363;SDS011;2705;41.410;2.160;2023-04-01T16:59:34;4.97;;;2.10;;
5363;SDS011;2705;41.410;2.160;2023-04-01T17:02:10;2.13;;;1.80;;
5363;SDS011;2705;41.410;2.160;2023-04-01T17:04:41;6.93;;;2.20;;
5363;SDS011;2705;41.410;2.160;2023-04-01T17:07:17;8.10;;;1.97;;
5363;SDS011;2705;41.410;2.160;2023-04-01T17:10:00;4.97;;;2.40;;
5363;SDS011;2705;41.410;2.160;2023-04-01T17:12:33;9.20;;;1.80;;
5363;SDS011;2705;41.410;2.160;2023-04-01T17:15:07;2.60;;;1.57;;
5363;SDS011;2705;41.410;2.160;2023-04-01T17:17:45;6.80;;;3.20;;
5363;SDS011;2705;41.410;2.160;2023-04-01T17:20:25;4.17;;;1.93;;
5363;SDS011;2705;41.410;2.160;2023-04-01T17:22:58;2.03;;;1.50;;
5363;SDS011;2705;41.410;2.160;2023-04-01T17:25:45;4.00;;;1.87;;
5363;SDS011;2705;41.410;2.160;2023-04-01T17:28:19;2.80;;;2.03;;
5363;SDS011;2705;41.410;2.160;2023-04-01T17:30:55;16.13;;;2.33;;
5363;SDS011;2705;41.410;2.160;2023-04-01T17:33:39;6.13;;;2.27;;
5363;SDS011;2705;41.410;2.160;2023-04-01T17:36:16;4.40;;;2.10;;
5363;SDS011;2705;41.410;2.160;2023-04-01T17:38:54;2.93;;;2.10;;
5363;SDS011;2705;41.410;2.160;2023-04-01T17:41:32;3.50;;;2.00;;
5363;SDS011;2705;41.410;2.160;2023-04-01T17:44:11;7.60;;;3.40;;
5363;SDS011;2705;41.410;2.160;2023-04-01T17:46:56;6.03;;;1.93;;
5363;SDS011;2705;41.410;2.160;2023-04-01T17:49:31;12.80;;;2.07;;
5363;SDS011;2705;41.410;2.160;2023-04-01T17:52:03;10.53;;;2.13;;
5363;SDS011;2705;41.410;2.160;2023-04-01T17:54:36;4.10;;;1.57;;